Time;durP1;ratioP1;P1;durP2;ratioP2;P2;SDS_P1;SDS_P2;PMS_P1;PMS_P2;Temp;Humidity;BMP_temperature;BMP_pressure;BME280_temperature;BME280_humidity;BME280_pressure;Samples;Min_cycle;Max_cycle;Signal;HPM_P1;HPM_P2
2022/04/28 00:02:46;;;;;;;5.80;2.22;;;;;;;;;;10437918;27;20043;-62
2022/04/28 00:07:44;;;;;;;3.65;1.85;;;;;;;;;;10437033;27;20071;-62
2022/04/28 00:12:44;;;;;;;3.75;2.17;;;;;;;;;;10436954;27;20082;-62
2022/04/28 00:17:42;;;;;;;4.10;2.10;;;;;;;;;;10425474;27;20152;-61
2022/04/28 00:22:40;;;;;;;6.53;2.10;;;;;;;;;;10418637;27;20043;-63
2022/04/28 00:27:39;;;;;;;4.15;2.00;;;;;;;;;;10437624;27;20082;-62
2022/04/28 00:32:39;;;;;;;2.28;2.00;;;;;;;;;;10418386;28;20415;-62
2022/04/28 00:37:37;;;;;;;3.47;2.63;;;;;;;;;;10436091;28;20125;-62
2022/04/28 00:42:36;;;;;;;2.50;2.30;;;;;;;;;;10437969;28;20077;-61
2022/04/28 00:52:51;;;;;;;5.47;2.53;;;;;;;;;;10419099;28;20415;-62
2022/04/28 00:57:50;;;;;;;6.95;2.55;;;;;;;;;;10437728;27;20534;-62
2022/04/28 01:02:48;;;;;;;2.92;2.50;;;;;;;;;;10445986;27;20039;-62
2022/04/28 01:07:47;;;;;;;7.72;2.67;;;;;;;;;;10427592;27;20541;-62
2022/04/28 01:12:47;;;;;;;4.93;2.40;;;;;;;;;;10445630;27;20408;-61
2022/04/28 01:17:46;;;;;;;6.68;2.80;;;;;;;;;;10444261;27;20050;-62
2022/04/28 01:22:45;;;;;;;4.35;2.55;;;;;;;;;;10444126;27;20086;-62
2022/04/28 01:27:46;;;;;;;6.53;3.20;;;;;;;;;;10430361;27;20071;-62
2022/04/28 01:32:44;;;;;;;6.10;3.47;;;;;;;;;;10431491;27;20280;-63
2022/04/28 01:37:42;;;;;;;9.32;4.00;;;;;;;;;;10444051;27;20301;-62
2022/04/28 01:42:47;;;;;;;5.63;3.55;;;;;;;;;;10429950;27;20058;-62
2022/04/28 01:47:47;;;;;;;4.80;3.80;;;;;;;;;;10424582;27;20097;-62
2022/04/28 01:58:34;;;;;;;8.07;5.05;;;;;;;;;;10401931;27;20044;-62
2022/04/28 02:03:58;;;;;;;6.63;4.57;;;;;;;;;;10423427;27;20124;-62
2022/04/28 02:08:59;;;;;;;7.40;5.40;;;;;;;;;;10440690;27;20086;-62
2022/04/28 02:14:00;;;;;;;5.63;5.05;;;;;;;;;;10418175;27;20047;-61
2022/04/28 02:19:27;;;;;;;7.25;6.32;;;;;;;;;;10413099;27;20545;-61
2022/04/28 02:24:25;;;;;;;9.40;6.90;;;;;;;;;;10439973;27;20044;-62
2022/04/28 02:29:25;;;;;;;9.52;6.82;;;;;;;;;;10423203;27;20097;-61
2022/04/28 02:34:24;;;;;;;7.28;6.47;;;;;;;;;;10441404;27;20043;-62
2022/04/28 02:39:23;;;;;;;6.97;5.65;;;;;;;;;;10422977;27;20411;-62
2022/04/28 02:44:23;;;;;;;8.05;6.03;;;;;;;;;;10422462;27;20094;-62
2022/04/28 02:49:22;;;;;;;9.05;6.18;;;;;;;;;;10441027;27;20184;-62
2022/04/28 02:54:25;;;;;;;5.85;5.30;;;;;;;;;;10440801;27;20079;-62
2022/04/28 02:59:25;;;;;;;7.18;5.82;;;;;;;;;;10438284;27;20414;-62
2022/04/28 03:04:25;;;;;;;6.07;5.00;;;;;;;;;;10421296;27;20427;-62
2022/04/28 03:14:40;;;;;;;9.70;6.07;;;;;;;;;;10421642;27;20069;-63
2022/04/28 03:19:40;;;;;;;7.55;6.10;;;;;;;;;;10422664;27;20058;-63
2022/04/28 03:24:39;;;;;;;8.73;6.28;;;;;;;;;;10420777;27;20069;-62
2022/04/28 03:29:39;;;;;;;6.35;5.75;;;;;;;;;;10421298;27;20424;-62
2022/04/28 03:34:37;;;;;;;9.05;7.10;;;;;;;;;;10420401;27;20043;-63
2022/04/28 03:39:38;;;;;;;11.18;7.43;;;;;;;;;;10437176;27;20043;-62
2022/04/28 03:44:37;;;;;;;9.52;8.40;;;;;;;;;;10420178;27;20424;-63
2022/04/28 03:49:37;;;;;;;8.73;7.55;;;;;;;;;;10435025;27;20087;-63
2022/04/28 03:54:38;;;;;;;11.63;8.13;;;;;;;;;;10419123;27;20076;-63
2022/04/28 03:59:38;;;;;;;9.75;7.68;;;;;;;;;;10435539;27;20055;-62
2022/04/28 04:05:12;;;;;;;10.38;7.68;;;;;;;;;;10423627;27;20408;-62
2022/04/28 04:10:13;;;;;;;9.02;8.13;;;;;;;;;;10420614;27;20515;-63
2022/04/28 04:15:16;;;;;;;10.13;7.47;;;;;;;;;;10407041;27;20066;-62
2022/04/28 04:20:38;;;;;;;12.40;9.55;;;;;;;;;;10429868;27;20102;-62
2022/04/28 04:25:38;;;;;;;10.20;8.77;;;;;;;;;;10397327;27;20040;-62
2022/04/28 04:36:16;;;;;;;11.23;9.65;;;;;;;;;;10422091;27;20063;-62
2022/04/28 04:41:16;;;;;;;10.52;9.00;;;;;;;;;;10430061;27;20042;-62
2022/04/28 04:46:14;;;;;;;12.38;9.30;;;;;;;;;;10425059;27;20071;-63
2022/04/28 04:51:12;;;;;;;10.73;8.82;;;;;;;;;;10424339;27;20071;-63
2022/04/28 04:56:36;;;;;;;11.75;9.38;;;;;;;;;;10419119;27;20082;-63
2022/04/28 05:01:34;;;;;;;9.43;8.32;;;;;;;;;;10406778;27;20109;-63
2022/04/28 05:06:51;;;;;;;10.68;9.32;;;;;;;;;;10440224;27;20538;-63
2022/04/28 05:11:57;;;;;;;10.18;9.18;;;;;;;;;;10431304;27;20071;-63
2022/04/28 05:17:04;;;;;;;10.00;8.88;;;;;;;;;;10436198;27;20066;-63
2022/04/28 05:22:16;;;;;;;10.27;8.70;;;;;;;;;;10413662;27;20110;-63
2022/04/28 05:27:54;;;;;;;10.10;9.10;;;;;;;;;;10229854;28;20100;-63
2022/04/28 05:33:11;;;;;;;16.48;9.60;;;;;;;;;;10385354;27;20078;-63
2022/04/28 05:38:28;;;;;;;10.38;8.40;;;;;;;;;;10419871;27;20043;-63
2022/04/28 13:13:33;;;;;;;10.48;9.07;;;;;;;;;;10388753;27;20391;-65
2022/04/28 13:18:31;;;;;;;12.65;9.80;;;;;;;;;;10381213;28;20091;-64
2022/04/28 13:23:29;;;;;;;20.95;15.50;;;;;;;;;;10381005;28;20095;-63
2022/04/28 13:28:28;;;;;;;10.98;9.95;;;;;;;;;;10381157;28;20119;-64
2022/04/28 13:33:27;;;;;;;11.75;10.55;;;;;;;;;;10381551;28;20040;-64
2022/04/28 13:38:27;;;;;;;10.35;9.20;;;;;;;;;;10382037;28;20134;-65
2022/04/28 13:43:28;;;;;;;12.18;11.00;;;;;;;;;;10382704;28;20079;-65
2022/04/28 13:48:28;;;;;;;13.13;11.82;;;;;;;;;;10381639;28;20162;-65
2022/04/28 13:53:28;;;;;;;16.30;13.27;;;;;;;;;;10383950;28;20051;-64
2022/04/28 13:58:27;;;;;;;12.90;11.60;;;;;;;;;;10382892;28;20368;-65
2022/04/28 14:03:27;;;;;;;11.50;10.38;;;;;;;;;;10380606;28;20453;-65
2022/04/28 14:08:26;;;;;;;16.20;14.10;;;;;;;;;;10381745;28;20051;-63
2022/04/28 14:13:27;;;;;;;14.15;11.23;;;;;;;;;;10357745;28;20079;-64
2022/04/28 14:18:26;;;;;;;13.63;12.18;;;;;;;;;;10350719;28;20114;-63
2022/04/28 14:23:25;;;;;;;14.35;13.05;;;;;;;;;;10350373;28;20477;-63
2022/04/28 14:28:25;;;;;;;13.18;11.63;;;;;;;;;;10350714;28;20276;-64
2022/04/28 14:33:23;;;;;;;10.40;9.40;;;;;;;;;;10350810;28;20102;-63
2022/04/28 14:38:22;;;;;;;26.83;23.98;;;;;;;;;;10350596;28;20473;-65
2022/04/28 14:43:20;;;;;;;22.15;20.08;;;;;;;;;;10351658;28;20079;-64
2022/04/28 14:48:20;;;;;;;13.20;11.93;;;;;;;;;;10353912;28;20444;-65
2022/04/28 14:53:28;;;;;;;24.33;21.45;;;;;;;;;;10353945;28;20079;-66
2022/04/28 14:58:26;;;;;;;28.80;25.90;;;;;;;;;;10354900;28;20051;-65
2022/04/28 15:03:27;;;;;;;12.75;11.50;;;;;;;;;;10356964;28;20056;-64
2022/04/28 15:08:25;;;;;;;29.65;27.05;;;;;;;;;;10355122;28;20068;-65
2022/04/28 15:13:23;;;;;;;26.15;23.80;;;;;;;;;;10355428;28;20444;-65
2022/04/28 15:18:22;;;;;;;21.88;19.92;;;;;;;;;;10355087;28;20068;-65
2022/04/28 15:23:21;;;;;;;30.17;25.83;;;;;;;;;;10350938;28;20163;-65
2022/04/28 15:28:20;;;;;;;16.33;14.73;;;;;;;;;;10350596;28;20075;-66
2022/04/28 15:33:18;;;;;;;14.57;13.27;;;;;;;;;;10350610;28;20071;-65
2022/04/28 15:38:16;;;;;;;15.55;12.90;;;;;;;;;;10350643;28;20040;-66
2022/04/28 15:43:18;;;;;;;16.58;14.98;;;;;;;;;;10350677;28;20516;-65
2022/04/28 15:48:16;;;;;;;18.33;14.38;;;;;;;;;;10349755;28;20074;-66
2022/04/28 15:53:15;;;;;;;17.50;12.55;;;;;;;;;;10349136;28;20076;-66
2022/04/28 15:58:13;;;;;;;13.25;11.95;;;;;;;;;;10347406;28;20087;-65
2022/04/28 16:03:13;;;;;;;15.15;12.13;;;;;;;;;;10347103;28;20105;-66
2022/04/28 16:08:12;;;;;;;13.35;11.98;;;;;;;;;;10347859;28;20446;-65
2022/04/28 16:13:10;;;;;;;14.85;12.82;;;;;;;;;;10346977;28;20516;-65
2022/04/28 16:18:08;;;;;;;14.38;12.93;;;;;;;;;;10346984;28;20068;-65
2022/04/28 16:23:08;;;;;;;19.08;17.02;;;;;;;;;;10348981;28;20079;-65
2022/04/28 16:28:08;;;;;;;20.40;18.27;;;;;;;;;;10347419;28;20582;-65
2022/04/28 16:33:06;;;;;;;28.60;25.80;;;;;;;;;;10344563;28;20163;-65
2022/04/28 16:38:05;;;;;;;21.40;18.02;;;;;;;;;;10347132;28;20055;-65
2022/04/28 16:43:05;;;;;;;33.60;25.85;;;;;;;;;;10347672;28;20373;-65
2022/04/28 16:48:03;;;;;;;16.02;14.00;;;;;;;;;;10348056;28;20047;-65
2022/04/28 16:53:01;;;;;;;15.70;14.15;;;;;;;;;;10347768;28;20130;-65
2022/04/28 16:58:00;;;;;;;21.33;18.63;;;;;;;;;;10347792;28;20040;-65
2022/04/28 17:08:31;;;;;;;16.77;13.98;;;;;;;;;;10347277;28;20071;-65
2022/04/28 17:13:29;;;;;;;15.52;12.75;;;;;;;;;;10349814;28;20535;-65
2022/04/28 17:18:29;;;;;;;12.63;10.02;;;;;;;;;;10350636;28;20068;-66
2022/04/28 17:23:27;;;;;;;9.57;8.60;;;;;;;;;;10351534;28;20496;-66
2022/04/28 17:28:27;;;;;;;10.38;9.27;;;;;;;;;;10352901;28;20098;-65
2022/04/28 17:33:25;;;;;;;12.05;10.15;;;;;;;;;;10349961;28;20072;-65
2022/04/28 17:38:25;;;;;;;9.55;7.60;;;;;;;;;;10347920;28;20067;-65
2022/04/28 17:43:23;;;;;;;10.48;8.82;;;;;;;;;;10345794;28;20072;-65
2022/04/28 17:48:21;;;;;;;8.90;7.70;;;;;;;;;;10356076;28;20064;-65
2022/04/28 17:53:20;;;;;;;9.43;7.65;;;;;;;;;;10360456;28;20075;-65
2022/04/28 18:03:35;;;;;;;7.35;6.63;;;;;;;;;;10357507;28;20044;-65
2022/04/28 18:08:34;;;;;;;9.20;6.72;;;;;;;;;;10350613;28;20500;-65
2022/04/28 18:13:33;;;;;;;7.85;7.05;;;;;;;;;;10358953;28;20099;-66
2022/04/28 18:18:32;;;;;;;12.60;6.28;;;;;;;;;;10357806;28;20086;-65
2022/04/28 18:23:30;;;;;;;6.88;6.15;;;;;;;;;;10358573;28;20068;-66
2022/04/28 18:28:29;;;;;;;7.40;6.60;;;;;;;;;;10357620;28;20083;-66
2022/04/28 18:33:28;;;;;;;8.65;7.75;;;;;;;;;;10354553;28;20087;-65
2022/04/28 18:49:02;;;;;;;9.15;8.25;;;;;;;;;;10352895;28;20059;-64
2022/04/28 18:54:00;;;;;;;9.75;8.77;;;;;;;;;;10353447;28;20479;-65
2022/04/28 18:58:58;;;;;;;9.90;8.90;;;;;;;;;;10357045;28;20055;-64
2022/04/28 19:03:56;;;;;;;10.15;9.13;;;;;;;;;;10356613;28;20084;-65
2022/04/28 19:08:56;;;;;;;9.23;8.43;;;;;;;;;;10353528;28;20056;-62
2022/04/28 19:13:54;;;;;;;11.13;10.05;;;;;;;;;;10353994;28;20075;-62
2022/04/28 19:18:52;;;;;;;11.90;10.27;;;;;;;;;;10354314;28;20048;-65
2022/04/28 19:23:51;;;;;;;9.35;8.45;;;;;;;;;;10348343;28;20082;-64
2022/04/28 19:28:50;;;;;;;10.43;9.43;;;;;;;;;;10345530;28;20119;-64
2022/04/28 19:33:49;;;;;;;11.95;10.27;;;;;;;;;;10350419;28;20078;-65
2022/04/28 19:38:47;;;;;;;10.75;9.65;;;;;;;;;;10355207;28;20079;-65
2022/04/28 19:43:46;;;;;;;10.95;9.95;;;;;;;;;;10355256;28;20059;-65
2022/04/28 19:48:46;;;;;;;11.88;10.68;;;;;;;;;;10353002;28;20445;-65
2022/04/28 19:53:45;;;;;;;10.73;9.70;;;;;;;;;;10345229;28;20076;-65
2022/04/28 19:58:44;;;;;;;11.48;10.43;;;;;;;;;;10352729;28;20060;-65
2022/04/28 20:03:42;;;;;;;11.10;10.00;;;;;;;;;;10351007;28;20449;-64
2022/04/28 20:08:46;;;;;;;12.05;10.82;;;;;;;;;;10350375;28;20064;-65
2022/04/28 20:13:45;;;;;;;10.85;9.80;;;;;;;;;;10349246;28;20082;-65
2022/04/28 20:18:44;;;;;;;12.05;10.85;;;;;;;;;;10351874;28;20044;-65
2022/04/28 20:23:43;;;;;;;13.07;11.15;;;;;;;;;;10353444;28;20048;-65
2022/04/28 20:28:43;;;;;;;12.88;10.63;;;;;;;;;;10352796;28;20078;-65
2022/04/28 20:33:42;;;;;;;11.57;10.48;;;;;;;;;;10351388;28;20079;-65
2022/04/28 20:38:40;;;;;;;17.10;11.98;;;;;;;;;;10353734;28;20086;-65
2022/04/28 20:43:41;;;;;;;13.30;11.93;;;;;;;;;;10353548;28;20559;-65
2022/04/28 20:48:41;;;;;;;13.55;12.20;;;;;;;;;;10345878;28;20071;-65
2022/04/28 20:53:42;;;;;;;13.45;12.15;;;;;;;;;;10352718;28;20090;-65
2022/04/28 20:58:40;;;;;;;12.93;11.63;;;;;;;;;;10352956;28;20086;-65
2022/04/28 21:03:40;;;;;;;13.48;12.07;;;;;;;;;;10352562;28;20068;-65
2022/04/28 21:08:39;;;;;;;13.93;12.57;;;;;;;;;;10352215;28;20090;-64
2022/04/28 21:13:38;;;;;;;13.57;12.27;;;;;;;;;;10353551;28;20084;-65
2022/04/28 21:18:36;;;;;;;13.98;12.55;;;;;;;;;;10352969;28;20063;-65
2022/04/28 21:23:34;;;;;;;13.57;12.18;;;;;;;;;;10358587;28;20075;-65
2022/04/28 21:28:36;;;;;;;14.20;12.40;;;;;;;;;;10362052;28;20040;-65
2022/04/28 21:33:35;;;;;;;18.20;12.75;;;;;;;;;;10361743;28;20075;-65
2022/04/28 21:38:34;;;;;;;15.95;11.68;;;;;;;;;;10361720;28;20131;-65
2022/04/28 21:43:34;;;;;;;13.45;12.07;;;;;;;;;;10361175;28;20078;-65
2022/04/28 21:48:33;;;;;;;12.63;11.15;;;;;;;;;;10360654;28;20084;-65
2022/04/28 21:53:49;;;;;;;12.20;11.02;;;;;;;;;;10361159;28;20082;-65
2022/04/28 21:58:48;;;;;;;11.27;10.20;;;;;;;;;;10360763;28;20089;-65
2022/04/28 22:14:19;;;;;;;13.77;10.93;;;;;;;;;;10358577;28;20461;-65
2022/04/28 22:19:18;;;;;;;12.43;11.20;;;;;;;;;;10356763;28;20473;-64
2022/04/28 22:24:17;;;;;;;12.20;11.05;;;;;;;;;;10355763;28;20639;-64
2022/04/28 22:29:15;;;;;;;12.95;10.27;;;;;;;;;;10357114;28;20100;-64
2022/04/28 22:34:14;;;;;;;12.55;11.25;;;;;;;;;;10358536;28;20086;-64
2022/04/28 22:39:13;;;;;;;14.50;10.63;;;;;;;;;;10359617;28;20094;-66
2022/04/28 22:44:13;;;;;;;13.05;11.75;;;;;;;;;;10359410;28;20101;-64
2022/04/28 22:49:11;;;;;;;16.23;11.30;;;;;;;;;;10358723;28;20130;-64
2022/04/28 22:54:10;;;;;;;13.63;12.25;;;;;;;;;;10359847;28;20079;-64
2022/04/28 22:59:09;;;;;;;13.52;12.18;;;;;;;;;;10359786;28;20048;-64
2022/04/28 23:04:07;;;;;;;14.05;12.65;;;;;;;;;;10360091;28;20079;-64
2022/04/28 23:09:06;;;;;;;15.35;12.43;;;;;;;;;;10358573;28;20087;-64
2022/04/28 23:14:06;;;;;;;14.68;13.30;;;;;;;;;;10358256;28;20111;-64
2022/04/28 23:19:05;;;;;;;15.75;14.25;;;;;;;;;;10357619;28;20429;-64
2022/04/28 23:24:04;;;;;;;14.18;12.52;;;;;;;;;;10357181;28;20052;-64
2022/04/28 23:29:02;;;;;;;16.45;14.85;;;;;;;;;;10359185;28;20051;-64
2022/04/28 23:39:14;;;;;;;16.05;14.50;;;;;;;;;;10356999;28;20432;-65
2022/04/28 23:44:12;;;;;;;14.70;13.20;;;;;;;;;;10356099;28;20055;-64
2022/04/28 23:49:10;;;;;;;14.95;13.45;;;;;;;;;;10356135;28;20086;-64
2022/04/28 23:59:23;;;;;;;15.40;12.98;;;;;;;;;;10351110;28;20478;-64
